Time;durP1;ratioP1;P1;durP2;ratioP2;P2;SDS_P1;SDS_P2;PMS_P1;PMS_P2;Temp;Humidity;BMP_temperature;BMP_pressure;BME280_temperature;BME280_humidity;BME280_pressure;Samples;Min_cycle;Max_cycle;Signal;HPM_P1;HPM_P2
2023/08/16 00:02:20;;;;;;;2.50;2.30;;;;;;;;;;5042681;28;20468;-78
2023/08/16 00:04:47;;;;;;;3.63;2.47;;;;;;;;;;5043704;28;20475;-78
2023/08/16 00:07:13;;;;;;;2.80;2.50;;;;;;;;;;5043261;28;20981;-78
2023/08/16 00:09:39;;;;;;;4.40;3.37;;;;;;;;;;5043971;28;20465;-78
2023/08/16 00:12:06;;;;;;;3.60;2.90;;;;;;;;;;5041949;28;20496;-78
2023/08/16 00:14:34;;;;;;;4.50;3.93;;;;;;;;;;5045066;28;20443;-78
2023/08/16 00:17:01;;;;;;;4.93;4.17;;;;;;;;;;5047403;28;20471;-78
2023/08/16 00:19:27;;;;;;;3.90;3.37;;;;;;;;;;5047921;28;20463;-78
2023/08/16 00:21:54;;;;;;;4.83;3.57;;;;;;;;;;5048245;28;20483;-78
2023/08/16 00:24:20;;;;;;;4.10;2.87;;;;;;;;;;5045724;28;20488;-78
2023/08/16 00:26:47;;;;;;;5.40;3.60;;;;;;;;;;5047570;28;20476;-77
2023/08/16 00:29:13;;;;;;;5.10;3.70;;;;;;;;;;5046518;28;20452;-78
2023/08/16 00:31:40;;;;;;;4.30;3.83;;;;;;;;;;5048671;28;20860;-78
2023/08/16 00:34:07;;;;;;;3.87;3.57;;;;;;;;;;5048984;28;20455;-78
2023/08/16 00:36:33;;;;;;;4.30;3.90;;;;;;;;;;5044979;28;20480;-78
2023/08/16 00:38:59;;;;;;;3.90;3.40;;;;;;;;;;5047747;28;20436;-78
2023/08/16 00:41:26;;;;;;;5.27;3.40;;;;;;;;;;5043029;28;20476;-78
2023/08/16 00:43:53;;;;;;;5.60;3.80;;;;;;;;;;5045944;28;20488;-78
2023/08/16 00:46:19;;;;;;;4.30;2.70;;;;;;;;;;5046359;28;21009;-78
2023/08/16 00:48:47;;;;;;;7.87;3.10;;;;;;;;;;5045262;28;20470;-78
2023/08/16 00:51:14;;;;;;;3.70;2.50;;;;;;;;;;5046442;28;21001;-78
2023/08/16 00:53:42;;;;;;;3.63;3.30;;;;;;;;;;5047131;28;20472;-78
2023/08/16 00:56:09;;;;;;;3.47;3.17;;;;;;;;;;5046168;28;20468;-78
2023/08/16 00:58:35;;;;;;;5.10;4.17;;;;;;;;;;5043224;28;20467;-78
2023/08/16 01:01:02;;;;;;;4.17;3.77;;;;;;;;;;5045246;28;21010;-78
2023/08/16 01:03:28;;;;;;;6.53;3.10;;;;;;;;;;5042946;28;20985;-78
2023/08/16 01:05:56;;;;;;;4.30;3.67;;;;;;;;;;5044402;28;20490;-78
2023/08/16 01:08:22;;;;;;;9.17;4.00;;;;;;;;;;5048301;28;20946;-78
2023/08/16 01:10:51;;;;;;;3.80;3.50;;;;;;;;;;5044796;28;20851;-78
2023/08/16 01:13:20;;;;;;;4.10;3.60;;;;;;;;;;5043463;28;21003;-78
2023/08/16 01:15:50;;;;;;;11.17;3.67;;;;;;;;;;5044296;28;20834;-78
2023/08/16 01:18:18;;;;;;;3.80;3.50;;;;;;;;;;5046028;28;20474;-78
2023/08/16 01:20:45;;;;;;;7.73;4.33;;;;;;;;;;5044034;28;20483;-78
2023/08/16 01:23:15;;;;;;;3.93;3.17;;;;;;;;;;5049611;28;20461;-78
2023/08/16 01:25:47;;;;;;;5.90;3.80;;;;;;;;;;5048064;28;21013;-78
2023/08/16 01:28:15;;;;;;;10.57;4.40;;;;;;;;;;5046081;28;20464;-78
2023/08/16 01:30:45;;;;;;;6.50;3.10;;;;;;;;;;5046970;28;20479;-78
2023/08/16 01:33:12;;;;;;;5.30;3.93;;;;;;;;;;5045055;28;20891;-78
2023/08/16 01:35:38;;;;;;;7.17;3.60;;;;;;;;;;5045966;28;20563;-78
2023/08/16 01:38:05;;;;;;;5.97;3.43;;;;;;;;;;5046814;28;20460;-78
2023/08/16 01:40:42;;;;;;;4.17;3.77;;;;;;;;;;5044034;28;20463;-78
2023/08/16 01:43:11;;;;;;;5.30;3.40;;;;;;;;;;5047898;28;20475;-78
2023/08/16 01:45:39;;;;;;;6.27;4.03;;;;;;;;;;5043695;28;21013;-78
2023/08/16 01:48:06;;;;;;;7.00;4.53;;;;;;;;;;5045991;28;20430;-78
2023/08/16 01:50:32;;;;;;;9.53;3.90;;;;;;;;;;5045890;28;20480;-78
2023/08/16 01:52:58;;;;;;;6.10;3.40;;;;;;;;;;5043753;28;20475;-78
2023/08/16 01:55:25;;;;;;;5.50;3.80;;;;;;;;;;5043726;28;20494;-77
2023/08/16 01:57:52;;;;;;;8.00;3.73;;;;;;;;;;5044442;28;20461;-78
2023/08/16 02:00:18;;;;;;;4.30;3.63;;;;;;;;;;5040823;28;20487;-78
2023/08/16 02:02:46;;;;;;;6.10;2.70;;;;;;;;;;5046884;28;20484;-78
2023/08/16 02:05:12;;;;;;;6.13;3.30;;;;;;;;;;5044772;28;20464;-78
2023/08/16 02:07:38;;;;;;;5.83;4.20;;;;;;;;;;5044753;28;20794;-78
2023/08/16 02:10:05;;;;;;;4.03;3.63;;;;;;;;;;5041384;28;20993;-78
2023/08/16 02:12:32;;;;;;;6.80;3.57;;;;;;;;;;5044300;28;20480;-78
2023/08/16 02:14:58;;;;;;;4.03;3.60;;;;;;;;;;5044588;28;20445;-79
2023/08/16 02:17:24;;;;;;;5.53;3.53;;;;;;;;;;5045417;28;20463;-77
2023/08/16 02:19:52;;;;;;;6.90;3.87;;;;;;;;;;5047210;28;20419;-78
2023/08/16 02:22:18;;;;;;;4.30;3.77;;;;;;;;;;5045008;28;20447;-78
2023/08/16 02:24:45;;;;;;;8.90;4.07;;;;;;;;;;5042212;28;20480;-79
2023/08/16 02:27:11;;;;;;;7.20;4.27;;;;;;;;;;5043237;28;20453;-78
2023/08/16 02:29:38;;;;;;;6.80;4.33;;;;;;;;;;5044878;28;20460;-78
2023/08/16 02:32:04;;;;;;;10.43;4.70;;;;;;;;;;5042195;28;20465;-78
2023/08/16 02:34:31;;;;;;;4.60;4.20;;;;;;;;;;5043114;28;20456;-78
2023/08/16 02:36:59;;;;;;;4.27;3.53;;;;;;;;;;5043899;28;20468;-78
2023/08/16 02:39:25;;;;;;;8.80;4.60;;;;;;;;;;5043030;28;20950;-78
2023/08/16 02:41:52;;;;;;;5.53;4.30;;;;;;;;;;5042822;28;20484;-78
2023/08/16 02:44:18;;;;;;;8.43;4.10;;;;;;;;;;5044397;28;21419;-78
2023/08/16 02:46:45;;;;;;;5.77;3.23;;;;;;;;;;5043718;28;21010;-78
2023/08/16 02:49:11;;;;;;;6.30;3.90;;;;;;;;;;5042458;28;20847;-78
2023/08/16 02:51:38;;;;;;;13.10;4.17;;;;;;;;;;5045860;28;20446;-78
2023/08/16 02:54:06;;;;;;;3.43;3.13;;;;;;;;;;5046461;28;20442;-78
2023/08/16 02:56:33;;;;;;;3.80;3.50;;;;;;;;;;5042581;28;20498;-77
2023/08/16 02:58:59;;;;;;;5.23;2.60;;;;;;;;;;5041258;28;20456;-78
2023/08/16 03:01:25;;;;;;;6.43;4.70;;;;;;;;;;5043036;28;21004;-78
2023/08/16 03:03:52;;;;;;;4.13;3.70;;;;;;;;;;5043045;28;20480;-78
2023/08/16 03:06:18;;;;;;;4.20;3.57;;;;;;;;;;5046802;28;20455;-78
2023/08/16 03:08:45;;;;;;;7.40;4.43;;;;;;;;;;5043279;28;20471;-77
2023/08/16 03:11:13;;;;;;;8.70;3.30;;;;;;;;;;5044240;28;20487;-78
2023/08/16 03:13:39;;;;;;;4.80;3.47;;;;;;;;;;5044024;28;20448;-78
2023/08/16 03:16:06;;;;;;;3.37;2.73;;;;;;;;;;5043162;28;20479;-78
2023/08/16 03:18:32;;;;;;;4.00;3.37;;;;;;;;;;5043046;28;20460;-78
2023/08/16 03:20:58;;;;;;;10.67;3.90;;;;;;;;;;5043695;28;20449;-78
2023/08/16 03:23:25;;;;;;;8.07;3.97;;;;;;;;;;5042831;28;20451;-77
2023/08/16 03:25:51;;;;;;;5.70;3.40;;;;;;;;;;5045323;28;20850;-78
2023/08/16 03:28:19;;;;;;;6.47;3.57;;;;;;;;;;5045933;28;20494;-77
2023/08/16 03:30:45;;;;;;;7.00;4.40;;;;;;;;;;5042927;28;20460;-78
2023/08/16 03:33:11;;;;;;;7.30;4.07;;;;;;;;;;5042746;28;20444;-78
2023/08/16 03:35:38;;;;;;;6.17;4.80;;;;;;;;;;5042907;28;20469;-78
2023/08/16 03:38:04;;;;;;;4.83;4.03;;;;;;;;;;5043954;28;20462;-78
2023/08/16 03:40:30;;;;;;;5.40;3.90;;;;;;;;;;5042165;28;20471;-78
2023/08/16 03:42:58;;;;;;;4.33;3.50;;;;;;;;;;5041709;28;20473;-78
2023/08/16 03:45:26;;;;;;;4.43;3.97;;;;;;;;;;5043343;28;20465;-78
2023/08/16 03:47:55;;;;;;;4.50;4.00;;;;;;;;;;5044093;28;20957;-77
2023/08/16 03:50:21;;;;;;;7.37;5.13;;;;;;;;;;5041919;28;20515;-78
2023/08/16 03:52:48;;;;;;;7.30;3.90;;;;;;;;;;5045208;28;20499;-78
2023/08/16 03:55:14;;;;;;;5.87;3.73;;;;;;;;;;5042191;28;20467;-78
2023/08/16 03:57:42;;;;;;;5.03;3.63;;;;;;;;;;5043866;28;20981;-78
2023/08/16 04:00:12;;;;;;;4.03;3.57;;;;;;;;;;5040851;28;20456;-78
2023/08/16 04:02:40;;;;;;;6.60;4.77;;;;;;;;;;5043726;28;20476;-78
2023/08/16 04:05:11;;;;;;;6.60;3.93;;;;;;;;;;5042787;28;20464;-78
2023/08/16 04:07:38;;;;;;;6.50;4.17;;;;;;;;;;5042397;28;20462;-76
2023/08/16 04:10:04;;;;;;;3.47;3.23;;;;;;;;;;5041488;28;20469;-78
2023/08/16 04:12:31;;;;;;;5.03;4.53;;;;;;;;;;5042805;28;20478;-78
2023/08/16 04:14:57;;;;;;;4.30;3.90;;;;;;;;;;5041494;28;20455;-78
2023/08/16 04:17:24;;;;;;;4.03;3.27;;;;;;;;;;5046864;28;20443;-78
2023/08/16 04:19:51;;;;;;;4.30;4.00;;;;;;;;;;5042405;28;20434;-79
2023/08/16 04:22:18;;;;;;;4.00;3.13;;;;;;;;;;5040881;28;20495;-78
2023/08/16 04:24:44;;;;;;;4.37;3.80;;;;;;;;;;5045339;28;20483;-79
2023/08/16 04:27:12;;;;;;;4.63;4.23;;;;;;;;;;5045472;28;20547;-78
2023/08/16 04:29:40;;;;;;;5.73;3.73;;;;;;;;;;5044142;28;20460;-78
2023/08/16 04:32:06;;;;;;;3.60;3.30;;;;;;;;;;5041418;28;20467;-78
2023/08/16 04:34:33;;;;;;;5.70;3.97;;;;;;;;;;5044019;28;20440;-77
2023/08/16 04:37:00;;;;;;;5.00;4.50;;;;;;;;;;5041042;28;20491;-77
2023/08/16 04:39:27;;;;;;;7.37;4.10;;;;;;;;;;5044839;28;20458;-78
2023/08/16 04:41:53;;;;;;;5.47;4.50;;;;;;;;;;5042921;28;20511;-78
2023/08/16 04:44:19;;;;;;;5.53;4.80;;;;;;;;;;5041990;28;20458;-78
2023/08/16 04:46:47;;;;;;;4.87;4.30;;;;;;;;;;5040237;28;21005;-78
2023/08/16 04:49:13;;;;;;;8.70;5.10;;;;;;;;;;5040691;28;20523;-78
2023/08/16 04:51:40;;;;;;;4.47;4.03;;;;;;;;;;5042761;28;20457;-79
2023/08/16 04:54:08;;;;;;;5.17;4.67;;;;;;;;;;5042823;28;20503;-78
2023/08/16 04:56:34;;;;;;;5.43;4.57;;;;;;;;;;5042855;28;20468;-78
2023/08/16 04:59:00;;;;;;;7.83;4.77;;;;;;;;;;5046051;28;20471;-78
2023/08/16 05:01:27;;;;;;;5.60;4.73;;;;;;;;;;5046377;28;20852;-78
2023/08/16 05:03:54;;;;;;;7.30;4.40;;;;;;;;;;5045378;28;20476;-79
2023/08/16 05:06:20;;;;;;;4.40;4.00;;;;;;;;;;5046337;28;20488;-79
2023/08/16 05:08:47;;;;;;;3.60;3.30;;;;;;;;;;5046311;28;20483;-79
2023/08/16 05:11:16;;;;;;;3.83;3.37;;;;;;;;;;5046529;28;20477;-79
2023/08/16 05:13:42;;;;;;;5.20;3.20;;;;;;;;;;5046398;28;20533;-79
2023/08/16 05:16:08;;;;;;;5.30;3.30;;;;;;;;;;5046955;28;20450;-79
2023/08/16 05:18:35;;;;;;;6.43;4.40;;;;;;;;;;5047544;28;20455;-79
2023/08/16 05:21:03;;;;;;;9.73;4.83;;;;;;;;;;5045028;28;20472;-79
2023/08/16 05:23:29;;;;;;;6.30;4.97;;;;;;;;;;5044412;28;20483;-79
2023/08/16 05:25:56;;;;;;;9.93;4.70;;;;;;;;;;5048831;28;20463;-79
2023/08/16 05:28:23;;;;;;;5.93;5.33;;;;;;;;;;5047978;28;20970;-79
2023/08/16 05:30:50;;;;;;;6.47;5.40;;;;;;;;;;5046690;28;20482;-79
2023/08/16 05:33:16;;;;;;;8.43;5.23;;;;;;;;;;5043288;28;20476;-79
2023/08/16 05:35:42;;;;;;;9.37;5.90;;;;;;;;;;5044161;28;20490;-79
2023/08/16 05:38:09;;;;;;;6.17;4.80;;;;;;;;;;5044222;28;20442;-79
2023/08/16 05:40:35;;;;;;;12.40;4.70;;;;;;;;;;5044898;28;20471;-79
2023/08/16 05:43:02;;;;;;;9.63;7.13;;;;;;;;;;5048193;28;20484;-79
2023/08/16 05:45:30;;;;;;;6.80;6.10;;;;;;;;;;5047531;28;20451;-79
2023/08/16 05:47:56;;;;;;;9.97;6.67;;;;;;;;;;5046737;28;20447;-79
2023/08/16 05:50:23;;;;;;;7.80;5.70;;;;;;;;;;5044647;28;20477;-79
2023/08/16 05:52:49;;;;;;;11.70;6.97;;;;;;;;;;5044479;28;20446;-79
2023/08/16 05:55:17;;;;;;;12.20;8.47;;;;;;;;;;5044308;28;20467;-80
2023/08/16 05:57:43;;;;;;;14.83;9.43;;;;;;;;;;5045354;28;20958;-79
2023/08/16 06:00:10;;;;;;;14.97;9.23;;;;;;;;;;5045586;28;20459;-79
2023/08/16 06:02:38;;;;;;;15.60;8.77;;;;;;;;;;5046926;28;20530;-79
2023/08/16 06:05:05;;;;;;;15.77;10.50;;;;;;;;;;5044404;28;20881;-79
2023/08/16 06:07:31;;;;;;;21.70;11.83;;;;;;;;;;5045674;28;20468;-79
2023/08/16 06:09:58;;;;;;;14.20;11.13;;;;;;;;;;5043818;28;20432;-80
2023/08/16 06:12:24;;;;;;;15.23;11.37;;;;;;;;;;5042991;28;20989;-79
2023/08/16 06:14:50;;;;;;;19.30;12.73;;;;;;;;;;5043707;28;20460;-80
2023/08/16 06:17:17;;;;;;;16.57;11.57;;;;;;;;;;5043052;28;20957;-79
2023/08/16 06:19:45;;;;;;;16.77;12.70;;;;;;;;;;5042351;28;20461;-80
2023/08/16 06:22:11;;;;;;;18.77;13.43;;;;;;;;;;5044896;28;20450;-79
2023/08/16 06:24:39;;;;;;;20.83;13.20;;;;;;;;;;5041025;28;20480;-78
2023/08/16 06:27:07;;;;;;;15.80;10.70;;;;;;;;;;5058085;28;20493;-79
2023/08/16 06:29:33;;;;;;;16.87;10.87;;;;;;;;;;5047443;28;21077;-79
2023/08/16 06:32:00;;;;;;;13.20;10.33;;;;;;;;;;5042429;28;20475;-79
2023/08/16 06:34:27;;;;;;;17.70;11.60;;;;;;;;;;5043750;28;20794;-78
2023/08/16 06:36:54;;;;;;;14.70;9.90;;;;;;;;;;5044818;28;20486;-79
2023/08/16 06:39:21;;;;;;;12.07;8.57;;;;;;;;;;5045856;28;20953;-79
2023/08/16 06:41:48;;;;;;;13.87;6.40;;;;;;;;;;5042363;28;20574;-79
2023/08/16 06:44:14;;;;;;;10.20;6.50;;;;;;;;;;5045179;28;20464;-79
2023/08/16 06:46:40;;;;;;;8.23;7.20;;;;;;;;;;5042156;28;20459;-79
2023/08/16 06:49:07;;;;;;;10.47;6.30;;;;;;;;;;5043869;28;20448;-79
2023/08/16 06:51:33;;;;;;;11.10;6.33;;;;;;;;;;5039184;28;21135;-79
2023/08/16 06:54:01;;;;;;;10.03;5.87;;;;;;;;;;5044946;28;20463;-79
2023/08/16 06:56:29;;;;;;;9.60;5.87;;;;;;;;;;5043617;28;20481;-79
2023/08/16 06:58:56;;;;;;;14.73;7.43;;;;;;;;;;5043509;28;20463;-79
2023/08/16 07:01:23;;;;;;;13.40;5.90;;;;;;;;;;5041343;28;20538;-79
2023/08/16 07:03:50;;;;;;;12.13;5.53;;;;;;;;;;5044472;28;20505;-79
2023/08/16 07:06:17;;;;;;;10.57;5.20;;;;;;;;;;5044569;28;21135;-79
2023/08/16 07:08:43;;;;;;;8.80;4.80;;;;;;;;;;5042620;28;20467;-79
2023/08/16 07:11:11;;;;;;;8.07;4.60;;;;;;;;;;5042095;28;20471;-80
2023/08/16 07:13:37;;;;;;;8.23;4.13;;;;;;;;;;5042122;28;20863;-79
2023/08/16 07:16:04;;;;;;;6.70;3.73;;;;;;;;;;5040976;28;20479;-79
2023/08/16 07:18:30;;;;;;;4.50;3.70;;;;;;;;;;5047122;28;20491;-79
2023/08/16 07:20:57;;;;;;;8.80;3.70;;;;;;;;;;5038789;28;20529;-79
2023/08/16 07:23:23;;;;;;;8.73;4.30;;;;;;;;;;5040886;28;21060;-79
2023/08/16 07:25:54;;;;;;;3.70;3.40;;;;;;;;;;5038730;28;20471;-79
2023/08/16 07:28:22;;;;;;;4.90;3.80;;;;;;;;;;5043748;28;20452;-79
2023/08/16 07:30:48;;;;;;;6.70;3.50;;;;;;;;;;5044364;28;20472;-79
2023/08/16 07:33:15;;;;;;;3.50;3.30;;;;;;;;;;5046066;28;20476;-79
2023/08/16 07:35:42;;;;;;;9.53;3.63;;;;;;;;;;5044347;28;20476;-79
2023/08/16 07:38:09;;;;;;;6.37;3.57;;;;;;;;;;5040838;28;20464;-79
2023/08/16 07:40:35;;;;;;;4.27;3.10;;;;;;;;;;5046495;28;20484;-79
2023/08/16 07:43:01;;;;;;;3.43;3.13;;;;;;;;;;5044263;28;20468;-79
2023/08/16 07:45:29;;;;;;;5.20;3.43;;;;;;;;;;5042837;28;20472;-79
2023/08/16 07:47:55;;;;;;;9.23;3.80;;;;;;;;;;5043758;28;20865;-79
2023/08/16 07:50:22;;;;;;;6.93;3.57;;;;;;;;;;5044063;28;20472;-79
2023/08/16 07:52:50;;;;;;;3.30;2.93;;;;;;;;;;5043287;28;20874;-79
2023/08/16 07:55:18;;;;;;;3.40;2.73;;;;;;;;;;5040684;28;20464;-79
2023/08/16 07:57:44;;;;;;;4.13;3.53;;;;;;;;;;5044001;28;20469;-79
2023/08/16 08:00:12;;;;;;;5.87;3.33;;;;;;;;;;5042431;28;20484;-79
2023/08/16 08:02:40;;;;;;;6.67;3.07;;;;;;;;;;5043456;28;21026;-79
2023/08/16 08:05:08;;;;;;;4.20;2.90;;;;;;;;;;5041766;28;20477;-79
2023/08/16 08:07:34;;;;;;;6.70;3.27;;;;;;;;;;5037341;28;20467;-79
2023/08/16 08:10:00;;;;;;;4.53;2.70;;;;;;;;;;5040961;28;20475;-79
2023/08/16 08:12:29;;;;;;;3.43;2.87;;;;;;;;;;5042512;28;20475;-79
2023/08/16 08:14:57;;;;;;;7.57;3.20;;;;;;;;;;5040321;28;20472;-79
2023/08/16 08:17:23;;;;;;;6.60;3.37;;;;;;;;;;5041309;28;20480;-79
2023/08/16 08:19:51;;;;;;;2.77;2.53;;;;;;;;;;5042560;28;20464;-80
2023/08/16 08:22:17;;;;;;;4.67;3.23;;;;;;;;;;5041519;28;20477;-79
2023/08/16 08:24:45;;;;;;;9.93;4.37;;;;;;;;;;5041656;28;20472;-79
2023/08/16 08:27:12;;;;;;;5.63;3.07;;;;;;;;;;5041487;28;20480;-79
2023/08/16 08:29:40;;;;;;;6.97;2.67;;;;;;;;;;5044466;28;20480;-79
2023/08/16 08:32:07;;;;;;;4.47;2.93;;;;;;;;;;5045989;28;20487;-79
2023/08/16 08:34:34;;;;;;;4.13;2.80;;;;;;;;;;5043666;28;20535;-79
2023/08/16 08:37:02;;;;;;;7.50;2.87;;;;;;;;;;5046554;28;20941;-79
2023/08/16 08:39:28;;;;;;;3.40;2.83;;;;;;;;;;5045832;28;20465;-80
2023/08/16 08:41:56;;;;;;;6.60;3.00;;;;;;;;;;5048435;28;20897;-80
2023/08/16 08:44:23;;;;;;;3.00;2.70;;;;;;;;;;5046893;28;20472;-79
2023/08/16 08:46:49;;;;;;;6.23;2.77;;;;;;;;;;5046849;28;20475;-79
2023/08/16 08:49:16;;;;;;;6.77;2.80;;;;;;;;;;5045580;28;20475;-80
2023/08/16 08:51:43;;;;;;;6.63;3.43;;;;;;;;;;5047730;28;20455;-79
2023/08/16 08:54:11;;;;;;;4.80;2.90;;;;;;;;;;5045859;28;20502;-80
2023/08/16 08:56:38;;;;;;;4.43;4.00;;;;;;;;;;5049319;28;20442;-79
2023/08/16 08:59:06;;;;;;;4.53;2.90;;;;;;;;;;5045592;28;20547;-79
2023/08/16 09:01:32;;;;;;;3.73;2.57;;;;;;;;;;5046104;28;20452;-79
2023/08/16 09:04:00;;;;;;;12.40;3.40;;;;;;;;;;5045817;28;20973;-80
2023/08/16 09:06:26;;;;;;;6.93;3.30;;;;;;;;;;5045630;28;20704;-79
2023/08/16 09:08:53;;;;;;;3.80;2.93;;;;;;;;;;5043057;28;20464;-79
2023/08/16 09:11:21;;;;;;;5.90;3.30;;;;;;;;;;5044817;28;20476;-79
2023/08/16 09:13:48;;;;;;;5.37;2.97;;;;;;;;;;5042824;28;20459;-79
2023/08/16 09:16:14;;;;;;;6.30;3.37;;;;;;;;;;5044328;28;20476;-79
2023/08/16 09:18:46;;;;;;;5.73;3.23;;;;;;;;;;5042578;28;20440;-79
2023/08/16 09:21:14;;;;;;;6.70;3.40;;;;;;;;;;5047073;28;20473;-80
2023/08/16 09:23:40;;;;;;;4.10;3.27;;;;;;;;;;5044338;28;20565;-80
2023/08/16 09:26:13;;;;;;;4.37;3.00;;;;;;;;;;5046595;28;20480;-79
2023/08/16 09:28:42;;;;;;;4.83;3.30;;;;;;;;;;5046912;28;20457;-79
2023/08/16 09:31:09;;;;;;;4.40;3.60;;;;;;;;;;5045897;28;20468;-79
2023/08/16 09:33:36;;;;;;;6.63;2.90;;;;;;;;;;5044729;28;20485;-79
2023/08/16 09:36:04;;;;;;;8.60;3.63;;;;;;;;;;5044783;28;21019;-79
2023/08/16 09:38:31;;;;;;;6.27;3.27;;;;;;;;;;5045025;28;21035;-79
2023/08/16 09:40:58;;;;;;;4.00;2.70;;;;;;;;;;5044206;28;20890;-79
2023/08/16 09:43:25;;;;;;;4.50;3.00;;;;;;;;;;5047097;28;20464;-79
2023/08/16 09:45:53;;;;;;;6.13;2.97;;;;;;;;;;5045947;28;20479;-79
2023/08/16 09:48:21;;;;;;;6.10;3.00;;;;;;;;;;5044016;28;20452;-79
2023/08/16 09:50:48;;;;;;;5.80;2.93;;;;;;;;;;5045983;28;20471;-79
2023/08/16 09:53:14;;;;;;;7.33;3.53;;;;;;;;;;5047210;28;20809;-79
2023/08/16 09:55:42;;;;;;;5.77;3.30;;;;;;;;;;5046574;28;21002;-79
2023/08/16 09:58:08;;;;;;;5.73;2.93;;;;;;;;;;5046315;28;20455;-79
2023/08/16 10:00:35;;;;;;;6.30;3.43;;;;;;;;;;5047018;28;20471;-79
2023/08/16 10:03:05;;;;;;;3.10;2.90;;;;;;;;;;5046924;28;20488;-79
2023/08/16 10:05:31;;;;;;;3.93;3.00;;;;;;;;;;5041701;28;21031;-79
2023/08/16 10:08:03;;;;;;;12.43;3.87;;;;;;;;;;5045397;28;20704;-79
2023/08/16 10:10:31;;;;;;;4.23;3.23;;;;;;;;;;5042167;28;20481;-79
2023/08/16 10:13:00;;;;;;;8.13;3.83;;;;;;;;;;5044269;28;20475;-79
2023/08/16 10:15:26;;;;;;;6.40;3.43;;;;;;;;;;5045241;28;20469;-79
2023/08/16 10:17:53;;;;;;;6.10;4.33;;;;;;;;;;5043333;28;20460;-79
2023/08/16 10:20:23;;;;;;;7.97;3.97;;;;;;;;;;5047899;28;20468;-79
2023/08/16 10:22:53;;;;;;;3.30;3.00;;;;;;;;;;5042339;28;20570;-79
2023/08/16 10:25:23;;;;;;;5.70;3.40;;;;;;;;;;5043633;28;20538;-79
2023/08/16 10:27:49;;;;;;;5.73;3.40;;;;;;;;;;5042959;28;20488;-79
2023/08/16 10:30:19;;;;;;;11.33;3.90;;;;;;;;;;5047897;28;20864;-79
2023/08/16 10:32:46;;;;;;;5.37;4.03;;;;;;;;;;5044895;28;20479;-79
2023/08/16 10:35:13;;;;;;;6.80;4.10;;;;;;;;;;5046687;28;20534;-79
2023/08/16 10:37:41;;;;;;;3.63;3.07;;;;;;;;;;5047774;28;20991;-79
2023/08/16 10:40:17;;;;;;;8.87;3.73;;;;;;;;;;5045544;28;21147;-79
2023/08/16 10:42:49;;;;;;;8.70;3.17;;;;;;;;;;5043908;28;20538;-79
2023/08/16 10:45:22;;;;;;;6.83;3.57;;;;;;;;;;5044014;28;20475;-79
2023/08/16 10:47:48;;;;;;;7.20;3.30;;;;;;;;;;5042158;28;20469;-79
2023/08/16 10:50:17;;;;;;;4.50;3.87;;;;;;;;;;5045382;28;20472;-79
2023/08/16 10:52:45;;;;;;;6.27;3.90;;;;;;;;;;5045932;28;20878;-80
2023/08/16 10:55:11;;;;;;;7.10;3.20;;;;;;;;;;5042774;28;20770;-79
2023/08/16 10:57:37;;;;;;;5.70;3.40;;;;;;;;;;5043305;28;20451;-79
2023/08/16 11:00:05;;;;;;;7.87;3.90;;;;;;;;;;5045464;28;20856;-79
2023/08/16 11:02:32;;;;;;;5.33;3.60;;;;;;;;;;5045697;28;20483;-79
2023/08/16 11:04:59;;;;;;;7.73;3.83;;;;;;;;;;5044549;28;20472;-79
2023/08/16 11:07:25;;;;;;;4.40;3.00;;;;;;;;;;5045405;28;20867;-79
2023/08/16 11:09:53;;;;;;;6.10;3.20;;;;;;;;;;5046371;28;20475;-79
2023/08/16 11:12:20;;;;;;;5.43;4.17;;;;;;;;;;5044658;28;20562;-79
2023/08/16 11:14:46;;;;;;;4.43;2.77;;;;;;;;;;5043495;28;20468;-79
2023/08/16 11:17:14;;;;;;;6.60;3.17;;;;;;;;;;5038993;28;20463;-79
2023/08/16 11:19:41;;;;;;;5.23;3.10;;;;;;;;;;5042561;28;20468;-79
2023/08/16 11:22:10;;;;;;;7.50;3.30;;;;;;;;;;5045452;28;20475;-79
2023/08/16 11:24:36;;;;;;;6.13;3.07;;;;;;;;;;5043667;28;20461;-79
2023/08/16 11:27:05;;;;;;;5.00;3.10;;;;;;;;;;5042729;28;20560;-79
2023/08/16 11:29:31;;;;;;;6.60;3.10;;;;;;;;;;5044249;28;20483;-80
2023/08/16 11:31:58;;;;;;;3.30;3.00;;;;;;;;;;5044044;28;20452;-79
2023/08/16 11:34:24;;;;;;;5.30;3.10;;;;;;;;;;5043211;28;20475;-79
2023/08/16 11:36:51;;;;;;;7.63;3.63;;;;;;;;;;5043041;28;20460;-79
2023/08/16 11:39:19;;;;;;;8.17;3.37;;;;;;;;;;5040815;28;20452;-80
2023/08/16 11:41:46;;;;;;;5.73;3.03;;;;;;;;;;5041894;28;20479;-79
2023/08/16 11:44:14;;;;;;;4.10;2.83;;;;;;;;;;5044874;28;21018;-80
2023/08/16 11:46:41;;;;;;;6.13;3.17;;;;;;;;;;5039879;28;20482;-80
2023/08/16 11:49:09;;;;;;;6.50;3.47;;;;;;;;;;5041888;28;20440;-81
2023/08/16 11:51:38;;;;;;;2.70;2.37;;;;;;;;;;5045129;28;20456;-79
2023/08/16 11:54:05;;;;;;;5.57;3.10;;;;;;;;;;5040425;28;20524;-80
2023/08/16 11:56:32;;;;;;;3.83;3.13;;;;;;;;;;5045306;28;20440;-79
2023/08/16 11:59:00;;;;;;;3.20;2.83;;;;;;;;;;5043998;28;20880;-79
2023/08/16 12:01:27;;;;;;;7.47;3.47;;;;;;;;;;5042879;28;21116;-79
2023/08/16 12:03:54;;;;;;;6.13;3.10;;;;;;;;;;5041269;28;20440;-79
2023/08/16 12:06:21;;;;;;;5.80;2.75;;;;;;;;;;5043131;28;20487;-79
2023/08/16 12:08:47;;;;;;;5.33;2.93;;;;;;;;;;5044805;28;20453;-79
2023/08/16 12:11:14;;;;;;;3.13;2.80;;;;;;;;;;5041933;28;21009;-79
2023/08/16 12:13:41;;;;;;;3.33;2.60;;;;;;;;;;5041438;28;20497;-79
2023/08/16 12:16:07;;;;;;;3.90;2.20;;;;;;;;;;5040300;28;20475;-80
2023/08/16 12:18:35;;;;;;;6.93;2.97;;;;;;;;;;5040879;28;20465;-79
2023/08/16 12:21:02;;;;;;;3.20;2.73;;;;;;;;;;5042713;28;21009;-79
2023/08/16 12:23:28;;;;;;;7.23;3.37;;;;;;;;;;5042750;28;20460;-79
2023/08/16 12:25:56;;;;;;;3.40;2.50;;;;;;;;;;5044894;28;20475;-79
2023/08/16 12:28:22;;;;;;;5.27;2.60;;;;;;;;;;5040563;28;20516;-79
2023/08/16 12:30:49;;;;;;;4.17;2.50;;;;;;;;;;5042446;28;20897;-79
2023/08/16 12:33:16;;;;;;;4.53;2.80;;;;;;;;;;5041319;28;20473;-79
2023/08/16 12:35:44;;;;;;;5.93;2.90;;;;;;;;;;5041804;28;20463;-79
2023/08/16 12:38:12;;;;;;;5.40;2.30;;;;;;;;;;5040811;28;20456;-79
2023/08/16 12:40:39;;;;;;;3.23;2.17;;;;;;;;;;5040434;28;20515;-79
2023/08/16 12:43:05;;;;;;;5.13;2.10;;;;;;;;;;5040038;28;20472;-79
2023/08/16 12:45:32;;;;;;;5.90;2.73;;;;;;;;;;5043568;28;21053;-79
2023/08/16 12:47:59;;;;;;;5.97;2.47;;;;;;;;;;5043921;28;20485;-79
2023/08/16 12:50:25;;;;;;;9.37;2.70;;;;;;;;;;5041122;28;20466;-79
2023/08/16 12:52:53;;;;;;;5.93;2.60;;;;;;;;;;5044391;28;20483;-79
2023/08/16 12:55:21;;;;;;;3.27;3.03;;;;;;;;;;5041501;28;20867;-79
2023/08/16 12:57:48;;;;;;;4.77;2.93;;;;;;;;;;5042808;28;20453;-80
2023/08/16 13:00:16;;;;;;;5.63;2.93;;;;;;;;;;5039970;28;21010;-79
2023/08/16 13:02:42;;;;;;;5.33;2.77;;;;;;;;;;5042196;28;20484;-79
2023/08/16 13:05:09;;;;;;;5.53;3.23;;;;;;;;;;5043551;28;20478;-79
2023/08/16 13:07:36;;;;;;;6.90;2.87;;;;;;;;;;5042931;28;21085;-80
2023/08/16 13:10:04;;;;;;;5.20;3.20;;;;;;;;;;5043179;28;20497;-79
2023/08/16 13:12:31;;;;;;;3.40;2.50;;;;;;;;;;5040311;28;20487;-80
2023/08/16 13:14:58;;;;;;;2.80;2.60;;;;;;;;;;5039852;28;20469;-79
2023/08/16 13:17:24;;;;;;;7.00;2.90;;;;;;;;;;5041761;28;20497;-80
2023/08/16 13:19:51;;;;;;;5.70;4.10;;;;;;;;;;5043122;28;20468;-80
2023/08/16 13:22:17;;;;;;;5.33;3.40;;;;;;;;;;5044961;28;20475;-79
2023/08/16 13:24:43;;;;;;;4.40;2.77;;;;;;;;;;5042783;28;20480;-80
2023/08/16 13:27:12;;;;;;;5.00;2.90;;;;;;;;;;5044855;28;20480;-79
2023/08/16 13:29:39;;;;;;;4.87;2.90;;;;;;;;;;5043980;28;20848;-80
2023/08/16 13:32:08;;;;;;;6.10;3.50;;;;;;;;;;5041958;28;20488;-80
2023/08/16 13:34:36;;;;;;;5.83;2.93;;;;;;;;;;5041178;28;20464;-80
2023/08/16 13:37:02;;;;;;;9.00;2.80;;;;;;;;;;5044227;28;20460;-79
2023/08/16 13:39:30;;;;;;;6.90;2.87;;;;;;;;;;5046049;28;20463;-80
2023/08/16 13:41:57;;;;;;;2.63;2.37;;;;;;;;;;5044934;28;20468;-80
2023/08/16 13:44:25;;;;;;;3.43;2.47;;;;;;;;;;5044882;28;20468;-79
2023/08/16 13:46:52;;;;;;;3.45;2.40;;;;;;;;;;5047380;28;20455;-80
2023/08/16 13:49:18;;;;;;;4.57;2.87;;;;;;;;;;5045819;28;20444;-79
2023/08/16 13:51:45;;;;;;;4.20;2.67;;;;;;;;;;5045497;28;20487;-79
2023/08/16 13:54:12;;;;;;;2.97;2.77;;;;;;;;;;5042362;28;20451;-80
2023/08/16 13:56:39;;;;;;;3.40;2.50;;;;;;;;;;5044013;28;20448;-79
2023/08/16 13:59:06;;;;;;;3.07;2.43;;;;;;;;;;5047004;28;20828;-80
2023/08/16 14:01:34;;;;;;;4.53;2.83;;;;;;;;;;5041599;28;20449;-79
2023/08/16 14:04:00;;;;;;;4.90;3.13;;;;;;;;;;5042453;28;20965;-79
2023/08/16 14:06:27;;;;;;;4.33;2.50;;;;;;;;;;5044348;28;20475;-79
2023/08/16 14:08:53;;;;;;;7.63;3.37;;;;;;;;;;5047743;28;20482;-79
2023/08/16 14:11:19;;;;;;;12.93;3.60;;;;;;;;;;5043182;28;20480;-79
2023/08/16 14:13:48;;;;;;;2.90;2.60;;;;;;;;;;5043894;28;20456;-80
2023/08/16 14:16:15;;;;;;;10.20;2.80;;;;;;;;;;5042290;28;20468;-80
2023/08/16 14:18:42;;;;;;;5.90;2.60;;;;;;;;;;5042800;28;20456;-80
2023/08/16 14:21:09;;;;;;;5.13;2.80;;;;;;;;;;5042141;28;20499;-79
2023/08/16 14:23:35;;;;;;;5.97;2.87;;;;;;;;;;5044880;28;20511;-79
2023/08/16 14:26:02;;;;;;;4.77;2.40;;;;;;;;;;5044175;28;20481;-79
2023/08/16 14:28:28;;;;;;;3.27;2.50;;;;;;;;;;5045951;28;20483;-80
2023/08/16 14:30:54;;;;;;;3.43;2.50;;;;;;;;;;5048649;28;20464;-79
2023/08/16 14:33:23;;;;;;;4.30;2.90;;;;;;;;;;5043614;28;20468;-79
2023/08/16 14:35:50;;;;;;;3.93;2.70;;;;;;;;;;5047096;28;20472;-80
2023/08/16 14:38:19;;;;;;;4.37;2.43;;;;;;;;;;5044790;28;20988;-79
2023/08/16 14:40:46;;;;;;;3.60;2.50;;;;;;;;;;5042927;28;20495;-80